Time;durP1;ratioP1;P1;durP2;ratioP2;P2;SDS_P1;SDS_P2;PMS_P1;PMS_P2;Temp;Humidity;BMP_temperature;BMP_pressure;BME280_temperature;BME280_humidity;BME280_pressure;Samples;Min_cycle;Max_cycle;Signal;HPM_P1;HPM_P2
2021/11/26 00:05:04;;;;;;;1999.90;999.90;;;;;;;7.28;68.79;100017.59;15467341;28;20129;-67
2021/11/26 00:13:05;;;;;;;;;;;;;;;7.44;68.97;100001.28;15495974;28;20058;-66
2021/11/26 00:20:40;;;;;;;1999.90;999.90;;;;;;;7.41;69.02;100007.50;15487030;28;19922;-66
2021/11/26 00:28:12;;;;;;;1999.90;999.90;;;;;;;7.22;69.40;100003.09;15509551;28;20047;-66
2021/11/26 00:35:50;;;;;;;1999.90;999.90;;;;;;;7.07;69.60;99989.72;15483809;28;20138;-66
2021/11/26 00:43:23;;;;;;;1999.90;999.90;;;;;;;7.03;69.73;99999.84;15503870;28;20069;-66
2021/11/26 00:50:57;;;;;;;1999.90;999.90;;;;;;;7.01;69.76;100002.13;15503881;28;20507;-67
2021/11/26 00:58:30;;;;;;;1999.90;999.90;;;;;;;6.98;69.81;99976.97;15503042;28;20041;-67
2021/11/26 01:06:04;;;;;;;1999.90;999.90;;;;;;;7.09;69.80;99981.09;15520084;28;20121;-67
2021/11/26 01:13:37;;;;;;;1999.90;999.90;;;;;;;6.95;69.99;99976.50;15461149;28;20495;-65
2021/11/26 01:21:11;;;;;;;1999.90;999.90;;;;;;;6.99;69.99;99965.59;15484921;28;20097;-66
2021/11/26 01:28:46;;;;;;;1999.90;999.90;;;;;;;6.71;70.69;99955.97;15485796;28;20463;-66
2021/11/26 01:36:21;;;;;;;1999.90;999.90;;;;;;;6.94;70.20;99946.31;15445207;28;20500;-66
2021/11/26 01:43:54;;;;;;;1999.90;999.90;;;;;;;6.86;70.55;99947.13;15484129;28;20100;-66
2021/11/26 01:51:28;;;;;;;1999.90;999.90;;;;;;;7.15;69.83;99940.91;15498941;28;20101;-66
2021/11/26 01:59:05;;;;;;;1999.90;999.90;;;;;;;7.14;69.85;99923.47;15516427;28;20525;-65
2021/11/26 02:06:40;;;;;;;1999.90;999.90;;;;;;;7.22;69.34;99910.72;15506966;28;20512;-66
2021/11/26 02:14:15;;;;;;;1999.90;999.90;;;;;;;7.25;69.34;99904.50;15517796;28;20041;-66
2021/11/26 02:21:49;;;;;;;1999.90;999.90;;;;;;;7.30;69.20;99893.25;15526231;28;20056;-65
2021/11/26 02:29:22;;;;;;;1999.90;999.90;;;;;;;7.24;69.67;99878.72;15557871;28;20104;-66
2021/11/26 02:36:57;;;;;;;1999.90;999.90;;;;;;;7.26;69.35;99878.38;15520994;28;20054;-66
2021/11/26 02:44:29;;;;;;;1999.90;999.90;;;;;;;7.18;69.55;99859.78;15497388;28;20633;-66
2021/11/26 02:52:04;;;;;;;1999.90;999.90;;;;;;;7.23;69.28;99846.56;15496848;28;20137;-66
2021/11/26 02:59:37;;;;;;;1999.90;999.90;;;;;;;7.34;69.26;99857.31;15512181;28;20042;-66
2021/11/26 03:07:11;;;;;;;1999.90;999.90;;;;;;;7.25;69.06;99849.00;15511382;28;20187;-65
2021/11/26 03:14:45;;;;;;;1999.90;999.90;;;;;;;7.21;69.62;99835.00;15495515;28;20098;-66
2021/11/26 03:22:19;;;;;;;1999.90;999.90;;;;;;;7.26;69.23;99841.50;15495621;28;20050;-65
2021/11/26 03:29:52;;;;;;;1999.90;999.90;;;;;;;7.31;69.51;99828.25;15472381;28;20387;-67
2021/11/26 03:37:26;;;;;;;1999.90;999.90;;;;;;;6.97;70.14;99826.41;15458497;28;20062;-67
2021/11/26 03:44:59;;;;;;;1999.90;999.90;;;;;;;7.20;69.81;99821.44;15473897;28;20360;-65
2021/11/26 03:52:33;;;;;;;1999.90;999.90;;;;;;;7.17;70.26;99819.31;15431570;28;20051;-65
2021/11/26 04:00:25;;;;;;;1999.90;999.90;;;;;;;7.36;69.78;99803.09;15435829;28;20369;-67
2021/11/26 04:08:00;;;;;;;1999.90;999.90;;;;;;;7.26;69.58;99794.31;15492193;28;20050;-65
2021/11/26 04:15:37;;;;;;;1999.90;999.90;;;;;;;7.16;70.20;99788.00;15492321;28;20066;-66
2021/11/26 04:23:12;;;;;;;1999.90;999.90;;;;;;;7.27;69.86;99784.84;15492618;28;20042;-66
2021/11/26 04:30:45;;;;;;;1999.90;999.90;;;;;;;7.30;69.82;99779.47;15491847;28;20112;-66
2021/11/26 04:38:20;;;;;;;1999.90;999.90;;;;;;;7.36;69.54;99771.75;15456528;28;20078;-67
2021/11/26 04:45:53;;;;;;;1999.90;999.90;;;;;;;7.26;69.80;99766.56;15447067;28;20364;-66
2021/11/26 04:53:27;;;;;;;1999.90;999.90;;;;;;;7.10;69.92;99760.78;15430278;28;20043;-65
2021/11/26 05:01:00;;;;;;;1999.90;999.90;;;;;;;7.15;69.91;99750.28;15436963;28;20106;-67
2021/11/26 05:08:34;;;;;;;1999.90;999.90;;;;;;;6.93;70.59;99745.81;15442123;28;20106;-70
2021/11/26 05:16:08;;;;;;;1999.90;999.90;;;;;;;6.92;70.17;99738.66;15455893;28;20431;-67
2021/11/26 05:23:42;;;;;;;1999.90;999.90;;;;;;;7.11;69.85;99729.94;15441959;28;20134;-65
2021/11/26 05:31:15;;;;;;;1999.90;999.90;;;;;;;7.05;69.83;99727.66;15440751;28;20415;-66
2021/11/26 05:38:50;;;;;;;1999.90;999.90;;;;;;;6.97;69.30;99714.66;15478650;28;20488;-66
2021/11/26 05:46:25;;;;;;;1999.90;999.90;;;;;;;7.07;68.64;99711.50;15501808;28;20062;-68
2021/11/26 05:53:59;;;;;;;1999.90;999.90;;;;;;;7.13;68.58;99701.84;15500971;28;20229;-68
2021/11/26 06:01:32;;;;;;;1999.90;999.90;;;;;;;6.86;68.54;99700.34;15499861;28;20046;-66
2021/11/26 06:09:06;;;;;;;1999.90;999.90;;;;;;;7.02;67.98;99695.06;15477503;28;20070;-66
2021/11/26 06:16:39;;;;;;;1999.90;999.90;;;;;;;7.04;67.94;99699.13;15462887;28;20057;-67
2021/11/26 06:24:13;;;;;;;1999.90;999.90;;;;;;;7.16;67.21;99704.75;15488049;28;20126;-67
2021/11/26 06:31:46;;;;;;;1999.90;999.90;;;;;;;7.17;67.04;99692.50;15437828;28;20047;-67
2021/11/26 06:39:20;;;;;;;1999.90;999.90;;;;;;;7.10;66.74;99692.25;15453097;28;20078;-68
2021/11/26 06:46:54;;;;;;;1999.90;999.90;;;;;;;7.12;66.34;99692.72;15493748;28;20061;-65
2021/11/26 06:54:28;;;;;;;1999.90;999.90;;;;;;;7.23;66.69;99677.31;15496117;28;20038;-67
2021/11/26 07:02:01;;;;;;;1999.90;999.90;;;;;;;7.32;66.08;99668.94;15495148;28;20533;-67
2021/11/26 07:09:35;;;;;;;1999.90;999.90;;;;;;;7.18;65.88;99677.50;15497801;28;20046;-68
2021/11/26 07:17:10;;;;;;;1999.90;999.90;;;;;;;7.03;66.23;99672.53;15469834;28;20141;-68
2021/11/26 07:24:45;;;;;;;1999.90;999.90;;;;;;;6.89;67.48;99669.19;15436081;28;20038;-66
2021/11/26 07:32:18;;;;;;;1999.90;999.90;;;;;;;6.86;67.46;99667.06;15433397;28;20082;-66
2021/11/26 07:39:53;;;;;;;1999.90;999.90;;;;;;;6.86;67.30;99669.84;15450463;28;20133;-67
2021/11/26 07:47:25;;;;;;;1999.90;999.90;;;;;;;6.91;66.89;99650.25;15435222;28;20599;-67
2021/11/26 07:55:00;;;;;;;1999.90;999.90;;;;;;;6.75;67.67;99640.84;15433125;28;20129;-66
2021/11/26 08:02:32;;;;;;;1999.90;999.90;;;;;;;6.50;67.86;99639.84;15435111;28;20393;-67
2021/11/26 08:10:09;;;;;;;1999.90;999.90;;;;;;;6.88;67.14;99628.75;15449052;28;20089;-67
2021/11/26 08:17:42;;;;;;;1999.90;999.90;;;;;;;7.63;65.99;99614.97;15477378;28;20140;-68
2021/11/26 08:25:19;;;;;;;1999.90;999.90;;;;;;;8.26;63.18;99599.00;15492164;28;20145;-68
2021/11/26 08:32:53;;;;;;;1999.90;999.90;;;;;;;8.87;61.05;99597.09;15490575;28;20530;-67
2021/11/26 08:40:27;;;;;;;1999.90;999.90;;;;;;;9.83;58.01;99597.19;15473737;28;20452;-66
2021/11/26 08:48:04;;;;;;;1999.90;999.90;;;;;;;9.35;58.24;99598.16;15483024;28;20487;-68
2021/11/26 08:55:45;;;;;;;1999.90;999.90;;;;;;;8.77;59.58;99588.41;15471458;28;20129;-68
2021/11/26 09:03:18;;;;;;;1999.90;999.90;;;;;;;8.78;59.93;99596.41;15441975;28;20035;-67
2021/11/26 09:10:52;;;;;;;1999.90;999.90;;;;;;;8.19;60.75;99588.44;15458748;28;20407;-69
2021/11/26 09:18:27;;;;;;;1999.90;999.90;;;;;;;8.43;61.18;99584.91;15519943;28;20046;-69
2021/11/26 09:26:01;;;;;;;1999.90;999.90;;;;;;;8.14;62.11;99579.53;15503767;28;20503;-68
2021/11/26 09:33:36;;;;;;;1999.90;999.90;;;;;;;8.59;61.63;99557.22;15501899;28;20051;-68
2021/11/26 09:41:14;;;;;;;1999.90;999.90;;;;;;;8.67;61.64;99553.53;15498358;28;20062;-67
2021/11/26 09:48:47;;;;;;;1999.90;999.90;;;;;;;8.37;61.27;99544.59;15448401;28;20047;-68
2021/11/26 09:56:21;;;;;;;1999.90;999.90;;;;;;;8.02;62.67;99538.59;15436035;28;20734;-67
2021/11/26 10:03:55;;;;;;;1999.90;999.90;;;;;;;8.07;62.18;99518.94;15451408;28;20731;-67
2021/11/26 10:11:32;;;;;;;1999.90;999.90;;;;;;;7.99;62.59;99517.88;15435965;28;20453;-67
2021/11/26 10:19:05;;;;;;;1999.90;999.90;;;;;;;8.41;61.40;99506.59;15434869;28;20089;-68
2021/11/26 10:26:39;;;;;;;1999.90;999.90;;;;;;;8.23;62.31;99494.91;15465012;28;20050;-68
2021/11/26 10:34:12;;;;;;;1999.90;999.90;;;;;;;8.19;62.26;99482.84;15471933;28;20042;-67
2021/11/26 10:42:01;;;;;;;1999.90;999.90;;;;;;;8.19;62.21;99463.38;15795592;27;20381;-67
2021/11/26 10:57:54;;;;;;;1999.90;999.90;;;;;;;9.13;60.71;99437.28;15747498;28;20068;-68
2021/11/26 11:05:30;;;;;;;1999.90;999.90;;;;;;;9.45;58.71;99435.38;15730669;28;20045;-68
2021/11/26 11:13:10;;;;;;;1999.90;999.90;;;;;;;9.33;59.26;99415.97;15729679;28;20057;-67
2021/11/26 11:20:45;;;;;;;1999.90;999.90;;;;;;;10.11;56.49;99393.72;15728808;28;20120;-67
2021/11/26 11:28:19;;;;;;;1999.90;999.90;;;;;;;9.57;58.32;99379.59;15728076;28;20040;-68
2021/11/26 11:35:53;;;;;;;1999.90;999.90;;;;;;;9.99;57.19;99384.63;15727417;28;20147;-67
2021/11/26 11:43:27;;;;;;;1999.90;999.90;;;;;;;11.42;53.37;99369.78;15728563;28;20135;-66
2021/11/26 11:51:01;;;;;;;1999.90;999.90;;;;;;;12.46;49.70;99351.88;15731931;28;20460;-67
2021/11/26 11:58:49;;;;;;;1999.90;999.90;;;;;;;15.39;43.57;99327.78;15718554;28;20037;-68
2021/11/26 12:06:23;;;;;;;1999.90;999.90;;;;;;;15.25;41.71;99318.13;15673259;28;20045;-68
2021/11/26 12:14:03;;;;;;;1999.90;999.90;;;;;;;17.07;38.49;99303.81;15681826;28;20049;-68
2021/11/26 12:21:46;;;;;;;1999.90;999.90;;;;;;;15.24;41.03;99284.81;15673423;28;20454;-68
2021/11/26 12:29:30;;;;;;;1999.90;999.90;;;;;;;15.57;39.95;99286.44;15621191;28;20044;-68
2021/11/26 12:37:02;;;;;;;;;;;;;;;15.06;41.96;99272.75;15604818;28;20060;-68
2021/11/26 12:44:36;;;;;;;1999.90;999.90;;;;;;;13.18;44.84;99265.56;15682374;28;20381;-68
2021/11/26 12:52:11;;;;;;;1999.90;999.90;;;;;;;12.87;46.05;99243.66;15683240;28;20072;-68
2021/11/26 12:59:49;;;;;;;1999.90;999.90;;;;;;;12.25;47.91;99229.34;15680425;28;20080;-67
2021/11/26 13:07:24;;;;;;;1999.90;999.90;;;;;;;12.32;46.59;99218.25;15698091;28;20041;-68
2021/11/26 13:14:59;;;;;;;1999.90;999.90;;;;;;;10.51;51.75;99204.97;15681336;28;20095;-67
2021/11/26 13:22:40;;;;;;;1999.90;999.90;;;;;;;9.60;52.73;99194.31;15680360;28;20391;-67
2021/11/26 13:30:17;;;;;;;1999.90;999.90;;;;;;;9.63;52.66;99182.44;15680298;28;20091;-67
2021/11/26 13:37:51;;;;;;;1999.90;999.90;;;;;;;10.03;52.22;99165.38;15680018;28;20052;-67
2021/11/26 13:45:32;;;;;;;1999.90;999.90;;;;;;;8.54;55.41;99157.91;15679112;28;20128;-67
2021/11/26 13:53:06;;;;;;;1999.90;999.90;;;;;;;8.62;55.05;99145.03;15681045;28;20049;-66
2021/11/26 14:00:46;;;;;;;1999.90;999.90;;;;;;;8.06;57.91;99148.66;15680099;28;20041;-67
2021/11/26 14:08:19;;;;;;;1999.90;999.90;;;;;;;7.58;58.85;99140.50;15669397;28;20068;-67
2021/11/26 14:16:03;;;;;;;1999.90;999.90;;;;;;;7.50;59.44;99128.38;15678519;28;20051;-67
2021/11/26 14:23:36;;;;;;;1999.90;999.90;;;;;;;7.15;59.91;99126.13;15679335;28;20084;-67
2021/11/26 14:31:11;;;;;;;1999.90;999.90;;;;;;;7.41;59.16;99119.41;15678609;28;20041;-68
2021/11/26 14:38:46;;;;;;;1999.90;999.90;;;;;;;7.18;59.59;99122.66;15678631;28;20492;-68
2021/11/26 14:46:20;;;;;;;1999.90;999.90;;;;;;;7.24;59.63;99123.25;15678150;28;20045;-66
2021/11/26 14:53:54;;;;;;;1999.90;999.90;;;;;;;6.91;60.08;99118.66;15679092;28;20044;-67
2021/11/26 15:01:32;;;;;;;1999.90;999.90;;;;;;;6.65;61.57;99110.66;15679370;28;20041;-67
2021/11/26 15:09:06;;;;;;;1999.90;999.90;;;;;;;6.86;61.16;99090.34;15679700;28;20049;-67
2021/11/26 15:16:41;;;;;;;1999.90;999.90;;;;;;;6.89;61.25;99092.44;15677658;28;20079;-67
2021/11/26 15:24:17;;;;;;;1999.90;999.90;;;;;;;6.66;61.84;99095.66;15715859;28;20071;-67
2021/11/26 15:31:51;;;;;;;1999.90;999.90;;;;;;;6.69;61.48;99083.09;15691007;28;20075;-67
2021/11/26 15:39:24;;;;;;;1999.90;999.90;;;;;;;6.58;60.87;99082.75;15712757;28;20155;-67
2021/11/26 15:46:59;;;;;;;1999.90;999.90;;;;;;;6.66;60.13;99076.25;15690004;28;20037;-65
2021/11/26 15:54:31;;;;;;;1999.90;999.90;;;;;;;6.40;60.30;99063.91;15688524;28;20137;-67
2021/11/26 16:02:07;;;;;;;1999.90;999.90;;;;;;;6.57;59.02;99063.69;15726148;28;20045;-65
2021/11/26 16:09:41;;;;;;;1999.90;999.90;;;;;;;6.47;58.43;99059.41;15687850;28;20036;-65
2021/11/26 16:17:17;;;;;;;1999.90;999.90;;;;;;;6.69;57.88;99055.38;15684600;28;20049;-68
2021/11/26 16:24:50;;;;;;;1999.90;999.90;;;;;;;6.66;57.64;99047.72;15681935;28;20045;-68
2021/11/26 16:32:29;;;;;;;1999.90;999.90;;;;;;;6.76;57.47;99047.25;15674304;28;20056;-68
2021/11/26 16:40:02;;;;;;;1999.90;999.90;;;;;;;6.75;56.50;99047.59;15647810;28;20050;-67
2021/11/26 16:47:37;;;;;;;1999.90;999.90;;;;;;;6.50;56.78;99035.75;15649000;28;20421;-68
2021/11/26 16:55:10;;;;;;;1999.90;999.90;;;;;;;6.78;56.12;99030.31;15683855;28;20123;-66
2021/11/26 17:02:44;;;;;;;1999.90;999.90;;;;;;;6.67;56.37;99018.88;15671739;28;20046;-68
2021/11/26 17:10:17;;;;;;;1999.90;999.90;;;;;;;6.64;56.41;99020.38;15620936;28;20088;-67
2021/11/26 17:17:51;;;;;;;1999.90;999.90;;;;;;;6.50;56.91;99000.53;15619205;28;20050;-66
2021/11/26 17:25:26;;;;;;;1999.90;999.90;;;;;;;6.44;56.89;98990.00;15620542;28;20120;-64
2021/11/26 17:33:01;;;;;;;1999.90;999.90;;;;;;;6.32;57.51;98983.31;15619147;28;20041;-67
2021/11/26 17:40:33;;;;;;;1999.90;999.90;;;;;;;6.27;57.87;98980.00;15661943;28;20072;-68
2021/11/26 17:48:08;;;;;;;1999.90;999.90;;;;;;;6.31;57.67;98975.38;15679406;28;20451;-66
2021/11/26 17:55:41;;;;;;;1999.90;999.90;;;;;;;6.39;58.62;98976.41;15678340;28;20116;-68
2021/11/26 18:03:19;;;;;;;1999.90;999.90;;;;;;;6.12;59.06;98969.59;15679613;28;20049;-67
2021/11/26 18:10:55;;;;;;;1999.90;999.90;;;;;;;6.02;58.76;98970.84;15695286;28;20071;-66
2021/11/26 18:18:29;;;;;;;1999.90;999.90;;;;;;;6.05;58.88;98959.09;15678207;28;20095;-68
2021/11/26 18:26:03;;;;;;;1999.90;999.90;;;;;;;5.88;59.29;98956.50;15695476;28;20467;-71
2021/11/26 18:33:38;;;;;;;1999.90;999.90;;;;;;;5.85;59.72;98949.72;15687231;28;20456;-68
2021/11/26 18:41:16;;;;;;;1999.90;999.90;;;;;;;5.86;59.59;98931.16;15710564;28;20056;-66
2021/11/26 18:48:53;;;;;;;1999.90;999.90;;;;;;;5.59;60.43;98927.88;15678912;28;20052;-67
2021/11/26 18:56:27;;;;;;;1999.90;999.90;;;;;;;5.59;60.66;98922.34;15677168;28;20605;-68
2021/11/26 19:04:12;;;;;;;1999.90;999.90;;;;;;;5.71;59.73;98911.28;15690867;28;20421;-68
2021/11/26 19:11:47;;;;;;;1999.90;999.90;;;;;;;5.88;59.39;98907.50;15689046;28;20056;-67
2021/11/26 19:19:24;;;;;;;1999.90;999.90;;;;;;;5.86;59.59;98911.78;15673070;28;20052;-68
2021/11/26 19:26:57;;;;;;;1999.90;999.90;;;;;;;5.50;60.17;98905.84;15690426;28;20049;-65
2021/11/26 19:34:32;;;;;;;1999.90;999.90;;;;;;;5.74;60.15;98904.28;15688933;28;20045;-66
2021/11/26 19:42:05;;;;;;;1999.90;999.90;;;;;;;5.59;59.58;98904.94;15690513;28;20052;-68
2021/11/26 19:49:40;;;;;;;1999.90;999.90;;;;;;;5.40;61.20;98906.28;15686665;28;20041;-67
2021/11/26 19:57:13;;;;;;;1999.90;999.90;;;;;;;5.17;60.81;98889.28;15687283;28;20110;-69
2021/11/26 20:04:47;;;;;;;1999.90;999.90;;;;;;;5.27;61.44;98890.81;15691319;28;20045;-68
2021/11/26 20:12:20;;;;;;;1999.90;999.90;;;;;;;5.47;60.79;98880.81;15697477;28;20457;-66
2021/11/26 20:19:54;;;;;;;1999.90;999.90;;;;;;;5.30;61.76;98869.94;15687223;28;20084;-68
2021/11/26 20:27:27;;;;;;;1999.90;999.90;;;;;;;5.54;60.15;98858.13;15718411;28;20094;-67
2021/11/26 20:35:01;;;;;;;1999.90;999.90;;;;;;;5.49;60.83;98868.25;15684246;28;20071;-67
2021/11/26 20:42:34;;;;;;;1999.90;999.90;;;;;;;5.16;61.39;98862.78;15623772;28;20060;-67
2021/11/26 20:50:09;;;;;;;1999.90;999.90;;;;;;;5.61;60.45;98866.66;15622257;28;20510;-67
2021/11/26 20:57:43;;;;;;;1999.90;999.90;;;;;;;5.35;61.04;98853.16;15620431;28;20045;-67
2021/11/26 21:05:18;;;;;;;1999.90;999.90;;;;;;;5.50;60.83;98855.22;15653558;28;20174;-67
2021/11/26 21:12:51;;;;;;;1999.90;999.90;;;;;;;5.34;61.66;98846.00;15674145;28;20075;-66
2021/11/26 21:20:26;;;;;;;1999.90;999.90;;;;;;;5.64;61.91;98841.88;15689335;28;20043;-66
2021/11/26 21:27:59;;;;;;;1999.90;999.90;;;;;;;5.38;61.73;98828.38;15618089;28;20072;-67
2021/11/26 21:35:34;;;;;;;1999.90;999.90;;;;;;;5.25;63.32;98818.44;15679807;28;20045;-66
2021/11/26 21:43:07;;;;;;;1999.90;999.90;;;;;;;4.97;65.78;98809.97;15680535;28;20045;-67
2021/11/26 21:50:42;;;;;;;1999.90;999.90;;;;;;;5.06;66.36;98802.41;15679981;28;20048;-67
2021/11/26 21:58:15;;;;;;;1999.90;999.90;;;;;;;4.91;67.18;98797.56;15678152;28;20444;-67
2021/11/26 22:05:49;;;;;;;1999.90;999.90;;;;;;;5.20;66.79;98779.94;15661152;28;20069;-67
2021/11/26 22:13:22;;;;;;;1999.90;999.90;;;;;;;5.05;67.35;98770.38;15678401;28;20422;-67
2021/11/26 22:20:56;;;;;;;1999.90;999.90;;;;;;;5.25;66.69;98787.22;15678063;28;20044;-67
2021/11/26 22:28:29;;;;;;;1999.90;999.90;;;;;;;5.09;66.80;98784.31;15676070;28;20052;-67
2021/11/26 22:36:04;;;;;;;1999.90;999.90;;;;;;;5.01;66.03;98780.53;15677803;28;20055;-66
2021/11/26 22:43:38;;;;;;;1999.90;999.90;;;;;;;4.82;66.72;98767.25;15677696;28;20048;-67
2021/11/26 22:51:13;;;;;;;1999.90;999.90;;;;;;;4.93;66.64;98762.09;15708052;28;20055;-66
2021/11/26 22:58:46;;;;;;;1999.90;999.90;;;;;;;4.85;67.37;98762.97;15664322;28;20041;-65
2021/11/26 23:06:22;;;;;;;1999.90;999.90;;;;;;;4.84;66.83;98751.13;15674485;28;20045;-69
2021/11/26 23:13:56;;;;;;;1999.90;999.90;;;;;;;5.01;66.68;98747.38;15676563;28;20049;-66
2021/11/26 23:21:31;;;;;;;;;;;;;;;4.79;67.94;98743.03;15676716;28;20053;-67
2021/11/26 23:29:04;;;;;;;1999.90;999.90;;;;;;;4.66;68.15;98740.59;15707881;28;19920;-66
2021/11/26 23:36:39;;;;;;;;;;;;;;;4.69;67.80;98732.44;15620863;28;20422;-65
2021/11/26 23:44:12;;;;;;;1999.90;999.90;;;;;;;4.63;67.85;98737.38;15616476;28;20382;-66
2021/11/26 23:51:46;;;;;;;1999.90;999.90;;;;;;;4.60;67.84;98718.72;15623149;28;20490;-66
2021/11/26 23:59:20;;;;;;;1999.90;999.90;;;;;;;4.47;69.01;98730.06;15623950;28;20045;-68
